createdAt,value
2022-12-23T14:36:15.613Z,150.48
2022-12-23T14:39:30.364Z,163.35
2022-12-23T14:42:05.438Z,157.38
2022-12-23T14:44:49.255Z,156.07
2022-12-23T14:47:34.577Z,184.25
2022-12-23T14:50:37.688Z,129.25
2022-12-23T14:53:22.453Z,133.48
2022-12-23T14:55:53.705Z,148.65
2022-12-23T14:58:58.107Z,141.43
2022-12-23T15:01:33.492Z,136.55
2022-12-23T15:04:09.720Z,130.90
2022-12-23T15:06:40.722Z,145.70
2022-12-23T15:09:22.602Z,132.63
2022-12-23T15:11:51.195Z,170.77
2022-12-23T15:14:26.607Z,121.05
2022-12-23T15:16:56.255Z,191.75
2022-12-23T15:19:27.172Z,135.82
2022-12-23T15:22:17.228Z,158.23
2022-12-23T15:24:53.473Z,160.07
2022-12-23T15:27:28.326Z,176.17
2022-12-23T15:29:57.684Z,172.40
2022-12-23T15:32:27.538Z,206.88
2022-12-23T15:35:02.101Z,184.13
2022-12-23T15:37:32.574Z,190.07
2022-12-23T15:40:13.079Z,169.57
2022-12-23T15:42:49.076Z,155.45
2022-12-23T15:45:35.585Z,162.57
2022-12-23T15:48:05.360Z,259.77
2022-12-23T15:50:40.493Z,221.77
2022-12-23T15:53:12.340Z,264.02
2022-12-23T15:55:43.381Z,153.43
2022-12-23T15:58:19.674Z,131.87
2022-12-23T16:00:54.289Z,196.13
2022-12-23T16:03:29.302Z,327.58
2022-12-23T16:06:11.357Z,244.55
2022-12-23T16:08:40.205Z,140.35
2022-12-23T16:11:15.956Z,170.23
2022-12-23T16:13:58.690Z,151.38
2022-12-23T16:16:39.210Z,195.70
2022-12-23T16:19:28.632Z,187.82
2022-12-23T16:21:57.418Z,156.48
2022-12-23T16:24:26.219Z,128.15
2022-12-23T16:26:57.761Z,128.00
2022-12-23T16:29:28.186Z,132.07
2022-12-23T16:32:01.636Z,120.93
2022-12-23T16:34:32.653Z,110.85
2022-12-23T16:37:02.517Z,128.15
2022-12-23T16:39:30.930Z,96.88
2022-12-23T16:42:00.801Z,108.05
2022-12-23T16:44:29.501Z,101.43
2022-12-23T16:47:04.225Z,109.78
2022-12-23T16:49:34.331Z,96.10
2022-12-23T16:52:04.484Z,119.03
2022-12-23T16:54:34.719Z,156.35
2022-12-23T16:57:07.530Z,119.38
2022-12-23T16:59:41.455Z,163.60
2022-12-23T17:02:20.576Z,125.38
2022-12-23T17:04:48.978Z,297.67
2022-12-23T17:07:17.355Z,306.92
2022-12-23T17:09:46.297Z,362.48
2022-12-23T17:12:16.098Z,167.02
2022-12-23T17:14:44.454Z,455.00
2022-12-23T17:17:15.800Z,194.80
2022-12-23T17:19:44.221Z,579.50
2022-12-23T17:22:14.322Z,485.67
2022-12-23T17:24:42.605Z,699.08
2022-12-23T17:27:20.063Z,697.47
2022-12-23T17:29:51.097Z,447.13
2022-12-23T17:32:21.265Z,364.48
2022-12-23T17:34:49.801Z,257.92
2022-12-23T17:37:20.435Z,780.70
2022-12-23T17:39:50.584Z,203.85
2022-12-23T17:42:25.744Z,375.10
2022-12-23T17:44:54.627Z,639.13
2022-12-23T17:47:24.299Z,278.40
2022-12-23T17:49:53.046Z,305.35
2022-12-23T17:52:23.644Z,372.02
2022-12-23T17:54:53.300Z,353.70
2022-12-23T17:57:26.603Z,420.88
2022-12-23T17:59:58.053Z,264.13
2022-12-23T18:02:30.912Z,243.35
2022-12-23T18:04:59.617Z,369.83
2022-12-23T18:07:30.242Z,251.65
2022-12-23T18:10:02.447Z,366.85
2022-12-23T18:12:37.428Z,269.67
2022-12-23T18:15:07.647Z,1121.32
2022-12-23T18:17:36.892Z,606.60
2022-12-23T18:20:08.658Z,570.92
2022-12-23T18:22:37.437Z,394.67
2022-12-23T18:25:06.610Z,515.75
2022-12-23T18:27:36.813Z,486.83
2022-12-23T18:30:08.836Z,203.63
2022-12-23T18:32:37.403Z,281.60
2022-12-23T18:35:33.071Z,596.65
2022-12-23T18:38:02.853Z,465.10
2022-12-23T18:40:33.168Z,533.30
2022-12-23T18:43:03.401Z,499.35
2022-12-23T18:45:35.914Z,184.13
2022-12-23T18:48:07.623Z,166.50
2022-12-23T18:50:38.698Z,251.48
2022-12-23T18:53:08.413Z,321.10
2022-12-23T18:55:37.850Z,387.83
2022-12-23T18:58:14.821Z,245.80
2022-12-23T19:00:44.110Z,347.77
2022-12-23T19:03:23.127Z,303.23
2022-12-23T19:05:52.441Z,403.85
2022-12-23T19:08:26.804Z,263.38
2022-12-23T19:10:56.958Z,240.23
2022-12-23T19:13:26.639Z,183.98
2022-12-23T19:15:55.259Z,320.55
2022-12-23T19:18:25.304Z,161.90
2022-12-23T19:20:53.946Z,280.17
2022-12-23T19:23:22.980Z,188.07
2022-12-23T19:25:55.264Z,130.57
2022-12-23T19:28:24.146Z,255.10
2022-12-23T19:30:54.425Z,299.38
2022-12-23T19:33:22.869Z,219.38
2022-12-23T19:35:54.147Z,294.80
2022-12-23T19:38:22.598Z,119.10
2022-12-23T19:40:59.735Z,208.63
2022-12-23T19:43:28.248Z,229.55
2022-12-23T19:46:02.055Z,286.52
2022-12-23T19:48:31.896Z,191.13
2022-12-23T19:51:01.511Z,231.25
2022-12-23T19:53:30.430Z,493.48
2022-12-23T19:56:00.162Z,471.02
2022-12-23T19:58:32.977Z,585.42
2022-12-23T20:03:51.010Z,402.27
2022-12-23T20:06:21.518Z,572.10
2022-12-23T20:08:54.932Z,220.48
2022-12-23T20:11:31.016Z,568.90
2022-12-23T20:14:01.980Z,315.95
2022-12-23T20:16:30.695Z,189.98
2022-12-23T20:19:01.051Z,393.30
2022-12-23T20:21:29.377Z,205.43
2022-12-23T20:23:58.257Z,341.05
2022-12-23T20:26:28.182Z,170.85
2022-12-23T20:28:57.731Z,236.27
2022-12-23T20:31:27.544Z,147.90
2022-12-23T20:33:57.516Z,423.83
2022-12-23T20:36:30.025Z,145.27
2022-12-23T20:39:03.673Z,151.23
2022-12-23T20:41:38.356Z,142.38
2022-12-23T20:46:56.757Z,151.20
2022-12-23T20:49:26.979Z,225.52
2022-12-23T20:51:57.244Z,123.30
2022-12-23T20:54:32.194Z,100.82
2022-12-23T20:57:03.532Z,105.90
2022-12-23T20:59:33.113Z,120.53
2022-12-23T21:02:02.303Z,125.07
2022-12-23T21:04:31.064Z,129.77
2022-12-23T21:07:00.661Z,85.63
2022-12-23T21:09:29.312Z,96.07
2022-12-23T21:11:58.564Z,75.03
2022-12-23T21:14:27.517Z,72.88
2022-12-23T21:16:56.087Z,77.15
2022-12-23T21:19:26.982Z,76.13
2022-12-23T21:21:55.472Z,75.85
2022-12-23T21:24:25.729Z,73.68
2022-12-23T21:26:57.018Z,72.53
2022-12-23T21:29:26.366Z,71.95
2022-12-23T21:31:55.664Z,67.07
2022-12-23T21:34:24.342Z,60.53
2022-12-23T21:36:53.349Z,61.17
2022-12-23T21:39:24.718Z,60.50
2022-12-23T21:41:55.785Z,58.22
2022-12-23T21:44:24.788Z,58.38
2022-12-23T21:46:56.860Z,59.13
2022-12-23T21:49:25.446Z,57.38
2022-12-23T21:51:54.601Z,55.90
2022-12-23T21:54:23.528Z,57.45
2022-12-23T21:56:51.724Z,56.63
2022-12-23T21:59:34.962Z,57.40
2022-12-23T22:02:05.499Z,55.20
2022-12-23T22:04:34.366Z,55.58
2022-12-23T22:07:02.822Z,53.47
2022-12-23T22:09:32.922Z,52.88
2022-12-23T22:12:01.665Z,54.80
2022-12-23T22:14:31.602Z,54.95
2022-12-23T22:17:00.350Z,55.55
2022-12-23T22:19:28.837Z,52.25
2022-12-23T22:21:57.024Z,51.53
2022-12-23T22:24:25.558Z,52.60
2022-12-23T22:26:54.330Z,56.80
2022-12-23T22:29:23.402Z,57.63
2022-12-23T22:31:54.939Z,59.60
2022-12-23T22:34:24.706Z,66.88
2022-12-23T22:36:54.275Z,63.08
2022-12-23T22:39:23.554Z,68.28
2022-12-23T22:41:54.045Z,69.88
2022-12-23T22:44:22.748Z,72.32
2022-12-23T22:47:01.426Z,75.25
2022-12-23T22:49:30.327Z,70.40
2022-12-23T22:51:59.121Z,69.68
2022-12-23T22:54:27.741Z,69.75
2022-12-23T22:56:56.357Z,67.38
2022-12-23T22:59:28.858Z,65.18
2022-12-23T23:02:00.851Z,55.47
2022-12-23T23:04:30.842Z,55.88
2022-12-23T23:06:59.150Z,58.45
2022-12-23T23:09:29.232Z,52.63
2022-12-23T23:11:58.645Z,60.42
2022-12-23T23:14:27.902Z,55.40
2022-12-23T23:17:02.589Z,57.30
2022-12-23T23:19:34.095Z,57.95
2022-12-23T23:22:02.684Z,63.30
2022-12-23T23:24:32.029Z,60.05
2022-12-23T23:27:00.923Z,63.55
2022-12-23T23:29:30.744Z,67.60
2022-12-23T23:32:02.892Z,74.90
2022-12-23T23:34:32.127Z,90.93
2022-12-23T23:37:01.291Z,85.60
2022-12-23T23:39:30.007Z,80.38
2022-12-23T23:41:59.129Z,85.90
2022-12-23T23:44:30.473Z,89.28
2022-12-23T23:46:59.331Z,83.10
2022-12-23T23:49:29.341Z,75.65
2022-12-23T23:52:04.772Z,80.05
2022-12-23T23:54:33.282Z,80.72
2022-12-23T23:57:01.699Z,92.30
2022-12-23T23:59:33.012Z,88.18
